TAX09JF LGKR-LGSM
Flight info
| Callsign | TAX09JF |
|---|---|
| Flight time | 0h 51m |
| Altitude | 31000 |
| Route | MALED UA14 ARA UL612 TRL UM601 MIL UR32 IKARO UL609 URNIL |
| Aircraft | A320/M-SDE3FGHIRWY/LB1 |
Departure
| Time | 2026-04-30 21:00 |
|---|---|
| Airport | Corfu Ioannis Kapodistrias International Airport (LGKR) |
Arrival
| Time | 2026-04-30 21:52 |
|---|---|
| Airport | Samos Airport (LGSM) |
| Time | Latitude | Longitude | Altitude | Speed | Heading |
|---|---|---|---|---|---|
| 2026-04-30 20:41 | 39.60669 | 19.91358 | 9 ft | 0 kts | 78° |
| 2026-04-30 20:54 | 39.60665 | 19.91338 | 9 ft | 4 kts | 78° |
| 2026-04-30 20:54 | 39.60660 | 19.91304 | 9 ft | 4 kts | 77° |
| 2026-04-30 20:54 | 39.60653 | 19.91270 | 11 ft | 4 kts | 70° |
| 2026-04-30 20:55 | 39.60624 | 19.91215 | 11 ft | 3 kts | 19° |
| 2026-04-30 20:55 | 39.60617 | 19.91212 | 11 ft | 0 kts | 16° |
| 2026-04-30 20:58 | 39.60618 | 19.91212 | 11 ft | 2 kts | 17° |
| 2026-04-30 20:58 | 39.60690 | 19.91217 | 9 ft | 22 kts | 352° |
| 2026-04-30 20:58 | 39.60878 | 19.91169 | 9 ft | 29 kts | 349° |
| 2026-04-30 20:59 | 39.61212 | 19.91042 | 10 ft | 16 kts | 297° |
| 2026-04-30 20:59 | 39.61157 | 19.90967 | 10 ft | 18 kts | 169° |
| 2026-04-30 21:00 | 39.60606 | 19.91105 | 8 ft | 105 kts | 168° |
| 2026-04-30 21:00 | 39.58670 | 19.91630 | 679 ft | 148 kts | 166° |
| 2026-04-30 21:01 | 39.56670 | 19.92829 | 1277 ft | 184 kts | 135° |
| 2026-04-30 21:01 | 39.55652 | 19.94088 | 1365 ft | 219 kts | 136° |
| 2026-04-30 21:01 | 39.53353 | 19.96792 | 2732 ft | 230 kts | 137° |
| 2026-04-30 21:02 | 39.52118 | 19.98232 | 3570 ft | 232 kts | 137° |
| 2026-04-30 21:02 | 39.50916 | 19.99635 | 4364 ft | 233 kts | 137° |
| 2026-04-30 21:02 | 39.50085 | 20.00605 | 4918 ft | 234 kts | 137° |
| 2026-04-30 21:02 | 39.48869 | 20.02030 | 5645 ft | 238 kts | 137° |
| 2026-04-30 21:03 | 39.47613 | 20.03505 | 6332 ft | 244 kts | 137° |
| 2026-04-30 21:03 | 39.46346 | 20.04991 | 6996 ft | 249 kts | 136° |
| 2026-04-30 21:03 | 39.45307 | 20.06888 | 7295 ft | 271 kts | 109° |
| 2026-04-30 21:03 | 39.44738 | 20.09309 | 7692 ft | 290 kts | 104° |
| 2026-04-30 21:04 | 39.44184 | 20.11852 | 8384 ft | 297 kts | 104° |
| 2026-04-30 21:04 | 39.43619 | 20.14449 | 9167 ft | 302 kts | 104° |
| 2026-04-30 21:04 | 39.42445 | 20.19779 | 10405 ft | 323 kts | 105° |
| 2026-04-30 21:05 | 39.41803 | 20.22670 | 10614 ft | 346 kts | 105° |
| 2026-04-30 21:05 | 39.41113 | 20.25760 | 10803 ft | 368 kts | 105° |
| 2026-04-30 21:05 | 39.40388 | 20.28989 | 11326 ft | 378 kts | 105° |
| 2026-04-30 21:05 | 39.39651 | 20.32273 | 11973 ft | 383 kts | 106° |
| 2026-04-30 21:06 | 39.38905 | 20.35599 | 12628 ft | 388 kts | 106° |
| 2026-04-30 21:06 | 39.38147 | 20.38974 | 13282 ft | 393 kts | 107° |
| 2026-04-30 21:06 | 39.37380 | 20.42380 | 13914 ft | 397 kts | 107° |
| 2026-04-30 21:06 | 39.36605 | 20.45818 | 14491 ft | 402 kts | 107° |
| 2026-04-30 21:07 | 39.35819 | 20.49312 | 15061 ft | 406 kts | 107° |
| 2026-04-30 21:07 | 39.35025 | 20.52828 | 15630 ft | 410 kts | 107° |
| 2026-04-30 21:07 | 39.34219 | 20.56384 | 16162 ft | 415 kts | 107° |
| 2026-04-30 21:07 | 39.33403 | 20.59982 | 16700 ft | 420 kts | 107° |
| 2026-04-30 21:08 | 39.32569 | 20.63665 | 17273 ft | 424 kts | 107° |
| 2026-04-30 21:08 | 39.31734 | 20.67351 | 17851 ft | 430 kts | 107° |
| 2026-04-30 21:08 | 39.30885 | 20.71077 | 18362 ft | 435 kts | 107° |
| 2026-04-30 21:08 | 39.30025 | 20.74840 | 18838 ft | 439 kts | 107° |
| 2026-04-30 21:09 | 39.29154 | 20.78634 | 19334 ft | 442 kts | 107° |
| 2026-04-30 21:09 | 39.28277 | 20.82461 | 19818 ft | 446 kts | 108° |
| 2026-04-30 21:09 | 39.27393 | 20.86316 | 20305 ft | 450 kts | 108° |
| 2026-04-30 21:09 | 39.26502 | 20.90201 | 20772 ft | 453 kts | 108° |
| 2026-04-30 21:10 | 39.25602 | 20.94119 | 21215 ft | 457 kts | 108° |
| 2026-04-30 21:10 | 39.24697 | 20.98056 | 21681 ft | 460 kts | 108° |
| 2026-04-30 21:10 | 39.23783 | 21.02022 | 22090 ft | 463 kts | 108° |
| 2026-04-30 21:10 | 39.22857 | 21.06027 | 22506 ft | 467 kts | 108° |
| 2026-04-30 21:11 | 39.21922 | 21.10057 | 22911 ft | 471 kts | 108° |
| 2026-04-30 21:11 | 39.20981 | 21.14124 | 23325 ft | 475 kts | 108° |
| 2026-04-30 21:11 | 39.20034 | 21.18207 | 23706 ft | 477 kts | 108° |
| 2026-04-30 21:11 | 39.19075 | 21.22321 | 24048 ft | 480 kts | 108° |
| 2026-04-30 21:12 | 39.18110 | 21.26452 | 24387 ft | 483 kts | 108° |
| 2026-04-30 21:12 | 39.17124 | 21.30667 | 24732 ft | 486 kts | 108° |
| 2026-04-30 21:12 | 39.16146 | 21.34845 | 25059 ft | 488 kts | 108° |
| 2026-04-30 21:12 | 39.15164 | 21.39038 | 25344 ft | 491 kts | 108° |
| 2026-04-30 21:13 | 39.14171 | 21.43258 | 25675 ft | 493 kts | 108° |
| 2026-04-30 21:13 | 39.13173 | 21.47487 | 26002 ft | 495 kts | 108° |
| 2026-04-30 21:13 | 39.12168 | 21.51740 | 26282 ft | 498 kts | 108° |
| 2026-04-30 21:13 | 39.11162 | 21.56011 | 26614 ft | 500 kts | 108° |
| 2026-04-30 21:14 | 39.10152 | 21.60301 | 26944 ft | 501 kts | 108° |
| 2026-04-30 21:14 | 39.09140 | 21.64594 | 27221 ft | 503 kts | 108° |
| 2026-04-30 21:14 | 39.08116 | 21.68912 | 27468 ft | 505 kts | 108° |
| 2026-04-30 21:14 | 39.07083 | 21.73244 | 27728 ft | 507 kts | 108° |
| 2026-04-30 21:15 | 39.06043 | 21.77597 | 27960 ft | 510 kts | 108° |
| 2026-04-30 21:15 | 39.04985 | 21.82023 | 28223 ft | 512 kts | 108° |
| 2026-04-30 21:15 | 39.03937 | 21.86402 | 28483 ft | 513 kts | 108° |
| 2026-04-30 21:15 | 39.02883 | 21.90799 | 28715 ft | 515 kts | 108° |
| 2026-04-30 21:16 | 39.01823 | 21.95208 | 28980 ft | 516 kts | 108° |
| 2026-04-30 21:16 | 39.00764 | 21.99603 | 29297 ft | 515 kts | 108° |
| 2026-04-30 21:16 | 38.99704 | 22.04000 | 29618 ft | 515 kts | 108° |
| 2026-04-30 21:16 | 38.98644 | 22.08389 | 29926 ft | 514 kts | 108° |
| 2026-04-30 21:17 | 38.97584 | 22.12779 | 30216 ft | 514 kts | 108° |
| 2026-04-30 21:17 | 38.96523 | 22.17162 | 30512 ft | 513 kts | 108° |
| 2026-04-30 21:17 | 38.95449 | 22.21591 | 30797 ft | 512 kts | 108° |
| 2026-04-30 21:17 | 38.94405 | 22.25894 | 31048 ft | 512 kts | 108° |
| 2026-04-30 21:18 | 38.92264 | 22.34675 | 31117 ft | 512 kts | 108° |
| 2026-04-30 21:18 | 38.90126 | 22.43396 | 31112 ft | 512 kts | 108° |
| 2026-04-30 21:19 | 38.87985 | 22.52086 | 31121 ft | 510 kts | 108° |
| 2026-04-30 21:19 | 38.85841 | 22.60751 | 31120 ft | 509 kts | 108° |
| 2026-04-30 21:20 | 38.83698 | 22.69407 | 31123 ft | 509 kts | 108° |
| 2026-04-30 21:20 | 38.81550 | 22.78061 | 31121 ft | 509 kts | 108° |
| 2026-04-30 21:21 | 38.79402 | 22.86690 | 31125 ft | 507 kts | 108° |
| 2026-04-30 21:22 | 38.76177 | 22.99592 | 31127 ft | 506 kts | 108° |
| 2026-04-30 21:23 | 38.71846 | 23.16743 | 31113 ft | 505 kts | 108° |
| 2026-04-30 21:23 | 38.68594 | 23.29553 | 31122 ft | 504 kts | 109° |
| 2026-04-30 21:24 | 38.66427 | 23.38082 | 31113 ft | 504 kts | 109° |
| 2026-04-30 21:24 | 38.64255 | 23.46596 | 31117 ft | 503 kts | 109° |
| 2026-04-30 21:25 | 38.60975 | 23.59394 | 31112 ft | 502 kts | 109° |
| 2026-04-30 21:26 | 38.57684 | 23.72161 | 31098 ft | 502 kts | 109° |
| 2026-04-30 21:27 | 38.54400 | 23.84833 | 31097 ft | 500 kts | 109° |
| 2026-04-30 21:27 | 38.52202 | 23.93258 | 31090 ft | 500 kts | 109° |
| 2026-04-30 21:28 | 38.48903 | 24.05867 | 31071 ft | 499 kts | 109° |
| 2026-04-30 21:29 | 38.45981 | 24.17030 | 31070 ft | 497 kts | 109° |
| 2026-04-30 21:30 | 38.40443 | 24.37946 | 31065 ft | 496 kts | 109° |
| 2026-04-30 21:31 | 38.34905 | 24.58717 | 31061 ft | 494 kts | 109° |
| 2026-04-30 21:32 | 38.31574 | 24.71150 | 31041 ft | 494 kts | 109° |
| 2026-04-30 21:32 | 38.29346 | 24.79423 | 31041 ft | 494 kts | 109° |
| 2026-04-30 21:33 | 38.25996 | 24.91829 | 31037 ft | 494 kts | 109° |
| 2026-04-30 21:34 | 38.23753 | 25.00088 | 31015 ft | 494 kts | 110° |
| 2026-04-30 21:34 | 38.21503 | 25.08338 | 29593 ft | 494 kts | 110° |
| 2026-04-30 21:34 | 38.20382 | 25.12442 | 28216 ft | 489 kts | 110° |
| 2026-04-30 21:35 | 38.19277 | 25.16490 | 27010 ft | 481 kts | 110° |
| 2026-04-30 21:35 | 38.18192 | 25.20461 | 26222 ft | 467 kts | 110° |
| 2026-04-30 21:35 | 38.17132 | 25.24329 | 25495 ft | 463 kts | 110° |
| 2026-04-30 21:35 | 38.16074 | 25.28176 | 24727 ft | 459 kts | 110° |
| 2026-04-30 21:36 | 38.15024 | 25.31981 | 23982 ft | 456 kts | 110° |
| 2026-04-30 21:36 | 38.13970 | 25.35792 | 23191 ft | 458 kts | 110° |
| 2026-04-30 21:37 | 38.10832 | 25.47152 | 21096 ft | 451 kts | 110° |
| 2026-04-30 21:37 | 38.09795 | 25.50901 | 20448 ft | 449 kts | 110° |
| 2026-04-30 21:37 | 38.08760 | 25.54630 | 19801 ft | 447 kts | 111° |
| 2026-04-30 21:37 | 38.07729 | 25.58334 | 19189 ft | 444 kts | 111° |
| 2026-04-30 21:38 | 38.06699 | 25.62026 | 18597 ft | 442 kts | 111° |
| 2026-04-30 21:38 | 38.05676 | 25.65693 | 17955 ft | 440 kts | 111° |
| 2026-04-30 21:38 | 38.04664 | 25.69328 | 17408 ft | 435 kts | 111° |
| 2026-04-30 21:38 | 38.03649 | 25.72970 | 16835 ft | 430 kts | 111° |
| 2026-04-30 21:39 | 38.02654 | 25.76530 | 16301 ft | 426 kts | 111° |
| 2026-04-30 21:39 | 38.01665 | 25.80057 | 15750 ft | 423 kts | 111° |
| 2026-04-30 21:39 | 38.00681 | 25.83561 | 15199 ft | 420 kts | 111° |
| 2026-04-30 21:39 | 37.99704 | 25.87034 | 14633 ft | 418 kts | 111° |
| 2026-04-30 21:40 | 37.98729 | 25.90496 | 14048 ft | 415 kts | 111° |
| 2026-04-30 21:40 | 37.97758 | 25.93936 | 13398 ft | 414 kts | 111° |
| 2026-04-30 21:40 | 37.96793 | 25.97356 | 12778 ft | 410 kts | 111° |
| 2026-04-30 21:40 | 37.95835 | 26.00745 | 12144 ft | 407 kts | 111° |
| 2026-04-30 21:41 | 37.94884 | 26.04107 | 11492 ft | 404 kts | 111° |
| 2026-04-30 21:41 | 37.94033 | 26.07118 | 10944 ft | 400 kts | 111° |
| 2026-04-30 21:41 | 37.93114 | 26.10370 | 10781 ft | 384 kts | 111° |
| 2026-04-30 21:41 | 37.92235 | 26.13483 | 10657 ft | 367 kts | 111° |
| 2026-04-30 21:42 | 37.91392 | 26.16465 | 10534 ft | 352 kts | 111° |
| 2026-04-30 21:42 | 37.90580 | 26.19331 | 10415 ft | 339 kts | 111° |
| 2026-04-30 21:42 | 37.89797 | 26.22087 | 10285 ft | 327 kts | 111° |
| 2026-04-30 21:42 | 37.89039 | 26.24746 | 10170 ft | 315 kts | 111° |
| 2026-04-30 21:43 | 37.88301 | 26.27324 | 9950 ft | 308 kts | 111° |
| 2026-04-30 21:43 | 37.87573 | 26.29860 | 9592 ft | 306 kts | 111° |
| 2026-04-30 21:43 | 37.86844 | 26.32378 | 9198 ft | 304 kts | 113° |
| 2026-04-30 21:43 | 37.85986 | 26.34800 | 8860 ft | 299 kts | 120° |
| 2026-04-30 21:44 | 37.85023 | 26.36819 | 8657 ft | 294 kts | 126° |
| 2026-04-30 21:44 | 37.83874 | 26.38970 | 8073 ft | 301 kts | 127° |
| 2026-04-30 21:44 | 37.82600 | 26.41166 | 7115 ft | 317 kts | 131° |
| 2026-04-30 21:44 | 37.81174 | 26.43374 | 6176 ft | 331 kts | 131° |
| 2026-04-30 21:45 | 37.79713 | 26.45647 | 5711 ft | 325 kts | 132° |
| 2026-04-30 21:45 | 37.78320 | 26.47716 | 5931 ft | 297 kts | 133° |
| 2026-04-30 21:45 | 37.76997 | 26.49624 | 5882 ft | 280 kts | 134° |
| 2026-04-30 21:45 | 37.75729 | 26.51404 | 5815 ft | 265 kts | 135° |
| 2026-04-30 21:46 | 37.74518 | 26.53056 | 5734 ft | 251 kts | 136° |
| 2026-04-30 21:46 | 37.73339 | 26.54623 | 5612 ft | 240 kts | 137° |
| 2026-04-30 21:46 | 37.72177 | 26.56119 | 5452 ft | 237 kts | 137° |
| 2026-04-30 21:46 | 37.71015 | 26.57594 | 5284 ft | 237 kts | 133° |
| 2026-04-30 21:47 | 37.70278 | 26.59446 | 5153 ft | 240 kts | 103° |
| 2026-04-30 21:47 | 37.70085 | 26.61545 | 5161 ft | 242 kts | 96° |
| 2026-04-30 21:47 | 37.69963 | 26.63673 | 4996 ft | 243 kts | 94° |
| 2026-04-30 21:47 | 37.69946 | 26.65796 | 4758 ft | 241 kts | 91° |
| 2026-04-30 21:48 | 37.69951 | 26.67939 | 4419 ft | 242 kts | 90° |
| 2026-04-30 21:48 | 37.69980 | 26.70064 | 4064 ft | 242 kts | 89° |
| 2026-04-30 21:48 | 37.70004 | 26.72139 | 3716 ft | 229 kts | 91° |
| 2026-04-30 21:48 | 37.69990 | 26.74072 | 3453 ft | 214 kts | 92° |
| 2026-04-30 21:49 | 37.69947 | 26.75860 | 3397 ft | 193 kts | 95° |
| 2026-04-30 21:49 | 37.69811 | 26.77457 | 3337 ft | 171 kts | 99° |
| 2026-04-30 21:49 | 37.69672 | 26.78949 | 2911 ft | 173 kts | 98° |
| 2026-04-30 21:49 | 37.69559 | 26.80498 | 2313 ft | 181 kts | 96° |
| 2026-04-30 21:50 | 37.69480 | 26.82093 | 1773 ft | 178 kts | 94° |
| 2026-04-30 21:50 | 37.69427 | 26.83561 | 1616 ft | 163 kts | 94° |
| 2026-04-30 21:50 | 37.69333 | 26.85018 | 982 ft | 170 kts | 97° |
| 2026-04-30 21:50 | 37.69220 | 26.86483 | 653 ft | 160 kts | 95° |
| 2026-04-30 21:51 | 37.69133 | 26.87829 | 418 ft | 148 kts | 96° |
| 2026-04-30 21:51 | 37.69052 | 26.89098 | 223 ft | 143 kts | 95° |
| 2026-04-30 21:51 | 37.68977 | 26.90336 | 37 ft | 140 kts | 96° |
| 2026-04-30 21:51 | 37.68899 | 26.91437 | 18 ft | 105 kts | 96° |
| 2026-04-30 21:52 | 37.68870 | 26.91951 | 17 ft | 40 kts | 95° |
| 2026-04-30 21:52 | 37.68846 | 26.92278 | 18 ft | 22 kts | 93° |
| 2026-04-30 21:52 | 37.68815 | 26.92413 | 18 ft | 6 kts | 65° |
| 2026-04-30 21:52 | 37.68857 | 26.92303 | 20 ft | 44 kts | 275° |
| 2026-04-30 21:53 | 37.68879 | 26.91789 | 19 ft | 41 kts | 277° |
| 2026-04-30 21:53 | 37.68950 | 26.91680 | 19 ft | 7 kts | 341° |
| 2026-04-30 21:53 | 37.68980 | 26.91647 | 19 ft | 3 kts | 288° |
| 2026-04-30 21:53 | 37.68988 | 26.91587 | 19 ft | 14 kts | 279° |
| 2026-04-30 21:54 | 37.69007 | 26.91480 | 20 ft | 8 kts | 297° |
| 2026-04-30 21:54 | 37.69020 | 26.91477 | 20 ft | 4 kts | 347° |
| 2026-04-30 21:54 | 37.69042 | 26.91469 | 21 ft | 3 kts | 338° |
| 2026-04-30 21:54 | 37.69046 | 26.91467 | 21 ft | 0 kts | 335° |
| 2026-04-30 21:56 | 37.69069 | 26.91228 | 22 ft | 0 kts | 316° |